sensor_id;sensor_type;location;lat;lon;timestamp;pressure;altitude;pressure_sealevel;temperature;humidity
52949;BME280;38812;50.942;3.644;2023-04-07T00:01:28;101562.69;;;7.68;100.00
52949;BME280;38812;50.942;3.644;2023-04-07T00:03:53;101556.56;;;7.66;100.00
52949;BME280;38812;50.942;3.644;2023-04-07T00:06:18;101557.41;;;7.62;100.00
52949;BME280;38812;50.942;3.644;2023-04-07T00:08:44;101560.94;;;7.69;100.00
52949;BME280;38812;50.942;3.644;2023-04-07T00:11:09;101567.91;;;7.68;100.00
52949;BME280;38812;50.942;3.644;2023-04-07T00:13:35;101574.88;;;7.69;100.00
52949;BME280;38812;50.942;3.644;2023-04-07T00:16:00;101572.31;;;7.78;100.00
52949;BME280;38812;50.942;3.644;2023-04-07T00:18:26;101567.91;;;7.68;100.00
52949;BME280;38812;50.942;3.644;2023-04-07T00:20:51;101572.25;;;7.63;100.00
52949;BME280;38812;50.942;3.644;2023-04-07T00:23:16;101568.75;;;7.63;100.00
52949;BME280;38812;50.942;3.644;2023-04-07T00:25:42;101570.47;;;7.59;100.00
52949;BME280;38812;50.942;3.644;2023-04-07T00:28:07;101573.09;;;7.50;100.00
52949;BME280;38812;50.942;3.644;2023-04-07T00:30:33;101562.63;;;7.47;100.00
52949;BME280;38812;50.942;3.644;2023-04-07T00:32:58;101568.72;;;7.47;100.00
52949;BME280;38812;50.942;3.644;2023-04-07T00:35:23;101569.59;;;7.45;100.00
52949;BME280;38812;50.942;3.644;2023-04-07T00:37:49;101562.59;;;7.42;100.00
52949;BME280;38812;50.942;3.644;2023-04-07T00:40:16;101573.06;;;7.41;100.00
52949;BME280;38812;50.942;3.644;2023-04-07T00:42:41;101573.91;;;7.40;100.00
52949;BME280;38812;50.942;3.644;2023-04-07T00:45:07;101565.19;;;7.36;100.00
52949;BME280;38812;50.942;3.644;2023-04-07T00:47:32;101564.34;;;7.36;100.00
52949;BME280;38812;50.942;3.644;2023-04-07T00:49:58;101559.97;;;7.35;100.00
52949;BME280;38812;50.942;3.644;2023-04-07T00:52:23;101552.13;;;7.35;100.00
52949;BME280;38812;50.942;3.644;2023-04-07T00:54:56;101565.19;;;7.39;100.00
52949;BME280;38812;50.942;3.644;2023-04-07T00:57:22;101560.84;;;7.40;100.00
52949;BME280;38812;50.942;3.644;2023-04-07T00:59:49;101559.97;;;7.39;100.00
52949;BME280;38812;50.942;3.644;2023-04-07T01:04:54;101566.06;;;7.40;100.00
52949;BME280;38812;50.942;3.644;2023-04-07T01:07:32;101566.06;;;7.40;100.00
52949;BME280;38812;50.942;3.644;2023-04-07T01:10:06;101550.38;;;7.37;100.00
52949;BME280;38812;50.942;3.644;2023-04-07T01:16:08;101551.25;;;7.31;100.00
52949;BME280;38812;50.942;3.644;2023-04-07T01:18:37;101559.09;;;7.33;100.00
52949;BME280;38812;50.942;3.644;2023-04-07T01:21:05;101557.34;;;7.32;100.00
52949;BME280;38812;50.942;3.644;2023-04-07T01:26:25;101560.81;;;7.28;100.00
52949;BME280;38812;50.942;3.644;2023-04-07T01:31:53;101570.38;;;7.26;100.00
52949;BME280;38812;50.942;3.644;2023-04-07T01:34:21;101571.28;;;7.28;100.00
52949;BME280;38812;50.942;3.644;2023-04-07T01:36:48;101571.25;;;7.25;100.00
52949;BME280;38812;50.942;3.644;2023-04-07T01:39:16;101569.50;;;7.25;100.00
52949;BME280;38812;50.942;3.644;2023-04-07T01:41:43;101580.84;;;7.29;100.00
52949;BME280;38812;50.942;3.644;2023-04-07T01:44:09;101575.63;;;7.27;100.00
52949;BME280;38812;50.942;3.644;2023-04-07T01:46:35;101570.38;;;7.22;100.00
52949;BME280;38812;50.942;3.644;2023-04-07T01:49:02;101579.09;;;7.25;100.00
52949;BME280;38812;50.942;3.644;2023-04-07T01:51:29;101580.84;;;7.26;100.00
52949;BME280;38812;50.942;3.644;2023-04-07T01:53:55;101586.94;;;7.25;100.00
52949;BME280;38812;50.942;3.644;2023-04-07T01:56:21;101573.84;;;7.20;100.00
52949;BME280;38812;50.942;3.644;2023-04-07T01:58:47;101582.56;;;7.25;100.00
52949;BME280;38812;50.942;3.644;2023-04-07T02:01:13;101581.66;;;7.18;100.00
52949;BME280;38812;50.942;3.644;2023-04-07T02:03:50;101595.63;;;7.22;100.00
52949;BME280;38812;50.942;3.644;2023-04-07T02:06:21;101589.50;;;7.18;100.00
52949;BME280;38812;50.942;3.644;2023-04-07T02:08:51;101593.88;;;7.22;100.00
52949;BME280;38812;50.942;3.644;2023-04-07T02:11:20;101586.97;;;7.32;100.00
52949;BME280;38812;50.942;3.644;2023-04-07T02:13:47;101588.69;;;7.26;100.00
52949;BME280;38812;50.942;3.644;2023-04-07T02:16:13;101590.44;;;7.28;100.00
52949;BME280;38812;50.942;3.644;2023-04-07T02:18:41;101587.84;;;7.30;100.00
52949;BME280;38812;50.942;3.644;2023-04-07T02:21:07;101594.78;;;7.28;100.00
52949;BME280;38812;50.942;3.644;2023-04-07T02:23:36;101583.44;;;7.26;100.00
52949;BME280;38812;50.942;3.644;2023-04-07T02:26:01;101592.19;;;7.28;100.00
52949;BME280;38812;50.942;3.644;2023-04-07T02:28:27;101597.38;;;7.23;100.00
52949;BME280;38812;50.942;3.644;2023-04-07T02:30:52;101589.50;;;7.15;100.00
52949;BME280;38812;50.942;3.644;2023-04-07T02:33:17;101594.72;;;7.18;100.00
52949;BME280;38812;50.942;3.644;2023-04-07T02:35:43;101599.09;;;7.19;100.00
52949;BME280;38812;50.942;3.644;2023-04-07T02:38:08;101592.09;;;7.15;100.00
52949;BME280;38812;50.942;3.644;2023-04-07T02:40:34;101597.34;;;7.11;100.00
52949;BME280;38812;50.942;3.644;2023-04-07T02:43:00;101592.06;;;7.05;100.00
52949;BME280;38812;50.942;3.644;2023-04-07T02:45:26;101604.25;;;7.04;100.00
52949;BME280;38812;50.942;3.644;2023-04-07T02:47:51;101602.50;;;7.02;100.00
52949;BME280;38812;50.942;3.644;2023-04-07T02:50:17;101600.69;;;6.90;100.00
52949;BME280;38812;50.942;3.644;2023-04-07T02:52:42;101593.72;;;6.86;100.00
52949;BME280;38812;50.942;3.644;2023-04-07T02:55:08;101605.91;;;6.87;100.00
52949;BME280;38812;50.942;3.644;2023-04-07T02:57:33;101598.91;;;6.83;100.00
52949;BME280;38812;50.942;3.644;2023-04-07T02:59:59;101595.34;;;6.70;100.00
52949;BME280;38812;50.942;3.644;2023-04-07T03:02:24;101602.31;;;6.68;100.00
52949;BME280;38812;50.942;3.644;2023-04-07T03:04:51;101593.47;;;6.54;100.00
52949;BME280;38812;50.942;3.644;2023-04-07T03:07:17;101596.94;;;6.48;100.00
52949;BME280;38812;50.942;3.644;2023-04-07T03:09:42;101607.28;;;6.39;100.00
52949;BME280;38812;50.942;3.644;2023-04-07T03:12:08;101600.25;;;6.32;100.00
52949;BME280;38812;50.942;3.644;2023-04-07T03:14:33;101603.69;;;6.22;100.00
52949;BME280;38812;50.942;3.644;2023-04-07T03:16:58;101589.72;;;6.17;100.00
52949;BME280;38812;50.942;3.644;2023-04-07T03:19:24;101600.97;;;6.13;100.00
52949;BME280;38812;50.942;3.644;2023-04-07T03:21:49;101597.38;;;6.00;100.00
52949;BME280;38812;50.942;3.644;2023-04-07T03:24:15;101591.13;;;5.88;100.00
52949;BME280;38812;50.942;3.644;2023-04-07T03:26:40;101598.13;;;5.89;100.00
52949;BME280;38812;50.942;3.644;2023-04-07T03:29:06;101601.56;;;5.84;100.00
52949;BME280;38812;50.942;3.644;2023-04-07T03:31:31;101601.47;;;5.78;100.00
52949;BME280;38812;50.942;3.644;2023-04-07T03:33:57;101602.41;;;5.86;100.00
52949;BME280;38812;50.942;3.644;2023-04-07T03:36:22;101605.03;;;5.86;100.00
52949;BME280;38812;50.942;3.644;2023-04-07T03:38:48;101600.66;;;5.85;100.00
52949;BME280;38812;50.942;3.644;2023-04-07T03:41:14;101599.78;;;5.85;100.00
52949;BME280;38812;50.942;3.644;2023-04-07T03:43:39;101598.16;;;5.92;100.00
52949;BME280;38812;50.942;3.644;2023-04-07T03:46:05;101599.00;;;5.91;100.00
52949;BME280;38812;50.942;3.644;2023-04-07T03:48:31;101601.63;;;5.91;100.00
52949;BME280;38812;50.942;3.644;2023-04-07T03:50:56;101604.16;;;5.86;100.00
52949;BME280;38812;50.942;3.644;2023-04-07T03:53:22;101596.22;;;5.75;100.00
52949;BME280;38812;50.942;3.644;2023-04-07T03:55:47;101605.69;;;5.67;100.00
52949;BME280;38812;50.942;3.644;2023-04-07T03:58:13;101600.47;;;5.67;100.00
52949;BME280;38812;50.942;3.644;2023-04-07T04:00:38;101596.13;;;5.66;100.00
52949;BME280;38812;50.942;3.644;2023-04-07T04:03:04;101599.53;;;5.59;100.00
52949;BME280;38812;50.942;3.644;2023-04-07T04:05:29;101595.16;;;5.57;100.00
52949;BME280;38812;50.942;3.644;2023-04-07T04:07:55;101603.91;;;5.62;100.00
52949;BME280;38812;50.942;3.644;2023-04-07T04:10:21;101599.50;;;5.56;100.00
52949;BME280;38812;50.942;3.644;2023-04-07T04:12:47;101599.56;;;5.62;100.00
52949;BME280;38812;50.942;3.644;2023-04-07T04:15:13;101593.44;;;5.59;100.00
52949;BME280;38812;50.942;3.644;2023-04-07T04:17:38;101600.44;;;5.61;100.00
52949;BME280;38812;50.942;3.644;2023-04-07T04:20:04;101603.94;;;5.66;100.00
52949;BME280;38812;50.942;3.644;2023-04-07T04:22:30;101589.09;;;5.59;100.00
52949;BME280;38812;50.942;3.644;2023-04-07T04:24:55;101609.09;;;5.60;100.00
52949;BME280;38812;50.942;3.644;2023-04-07T04:27:21;101609.91;;;5.56;100.00
52949;BME280;38812;50.942;3.644;2023-04-07T04:29:46;101617.81;;;5.61;100.00
52949;BME280;38812;50.942;3.644;2023-04-07T04:32:13;101622.09;;;5.57;100.00
52949;BME280;38812;50.942;3.644;2023-04-07T04:34:38;101622.16;;;5.62;100.00
52949;BME280;38812;50.942;3.644;2023-04-07T04:37:06;101623.91;;;5.63;100.00
52949;BME280;38812;50.942;3.644;2023-04-07T04:39:31;101635.19;;;5.62;100.00
52949;BME280;38812;50.942;3.644;2023-04-07T04:41:57;101625.75;;;5.74;100.00
52949;BME280;38812;50.942;3.644;2023-04-07T04:44:22;101621.41;;;5.73;100.00
52949;BME280;38812;50.942;3.644;2023-04-07T04:46:47;101617.88;;;5.70;100.00
52949;BME280;38812;50.942;3.644;2023-04-07T04:49:13;101627.44;;;5.69;100.00
52949;BME280;38812;50.942;3.644;2023-04-07T04:51:39;101619.66;;;5.72;100.00
52949;BME280;38812;50.942;3.644;2023-04-07T04:54:05;101612.59;;;5.61;100.00
52949;BME280;38812;50.942;3.644;2023-04-07T04:56:31;101635.19;;;5.65;100.00
52949;BME280;38812;50.942;3.644;2023-04-07T04:58:56;101639.53;;;5.64;100.00
52949;BME280;38812;50.942;3.644;2023-04-07T05:01:21;101635.09;;;5.56;100.00
52949;BME280;38812;50.942;3.644;2023-04-07T05:03:47;101638.56;;;5.53;100.00
52949;BME280;38812;50.942;3.644;2023-04-07T05:06:12;101635.75;;;5.38;100.00
52949;BME280;38812;50.942;3.644;2023-04-07T05:08:38;101646.13;;;5.33;100.00
52949;BME280;38812;50.942;3.644;2023-04-07T05:11:03;101647.16;;;5.47;100.00
52949;BME280;38812;50.942;3.644;2023-04-07T05:13:29;101639.00;;;5.22;100.00
52949;BME280;38812;50.942;3.644;2023-04-07T05:15:55;101643.28;;;5.15;100.00
52949;BME280;38812;50.942;3.644;2023-04-07T05:18:20;101647.50;;;5.08;100.00
52949;BME280;38812;50.942;3.644;2023-04-07T05:20:47;101650.91;;;5.03;100.00
52949;BME280;38812;50.942;3.644;2023-04-07T05:23:13;101657.78;;;4.96;100.00
52949;BME280;38812;50.942;3.644;2023-04-07T05:25:38;101653.44;;;4.97;100.00
52949;BME280;38812;50.942;3.644;2023-04-07T05:28:03;101653.50;;;5.03;100.00
52949;BME280;38812;50.942;3.644;2023-04-07T05:30:29;101664.91;;;5.09;100.00
52949;BME280;38812;50.942;3.644;2023-04-07T05:32:54;101658.75;;;5.06;100.00
52949;BME280;38812;50.942;3.644;2023-04-07T05:35:20;101667.66;;;5.22;100.00
52949;BME280;38812;50.942;3.644;2023-04-07T05:37:45;101653.97;;;5.35;100.00
52949;BME280;38812;50.942;3.644;2023-04-07T05:40:11;101671.53;;;5.51;100.00
52949;BME280;38812;50.942;3.644;2023-04-07T05:42:36;101667.34;;;5.65;100.00
52949;BME280;38812;50.942;3.644;2023-04-07T05:45:03;101667.56;;;5.80;100.00
52949;BME280;38812;50.942;3.644;2023-04-07T05:47:28;101675.66;;;6.02;100.00
52949;BME280;38812;50.942;3.644;2023-04-07T05:49:53;101674.88;;;6.12;100.00
52949;BME280;38812;50.942;3.644;2023-04-07T05:52:19;101680.25;;;6.24;100.00
52949;BME280;38812;50.942;3.644;2023-04-07T05:54:44;101679.44;;;6.33;100.00
52949;BME280;38812;50.942;3.644;2023-04-07T05:57:10;101683.06;;;6.47;100.00
52949;BME280;38812;50.942;3.644;2023-04-07T05:59:35;101685.78;;;6.61;100.00
52949;BME280;38812;50.942;3.644;2023-04-07T06:02:02;101673.66;;;6.66;100.00
52949;BME280;38812;50.942;3.644;2023-04-07T06:04:28;101678.16;;;6.85;100.00
52949;BME280;38812;50.942;3.644;2023-04-07T06:06:53;101680.84;;;7.00;100.00
52949;BME280;38812;50.942;3.644;2023-04-07T06:09:23;101680.94;;;7.09;100.00
52949;BME280;38812;50.942;3.644;2023-04-07T06:11:48;101674.06;;;7.28;100.00
52949;BME280;38812;50.942;3.644;2023-04-07T06:14:15;101689.03;;;7.52;100.00
52949;BME280;38812;50.942;3.644;2023-04-07T06:16:41;101688.16;;;7.59;100.00
52949;BME280;38812;50.942;3.644;2023-04-07T06:19:06;101693.44;;;7.68;100.00
52949;BME280;38812;50.942;3.644;2023-04-07T06:21:32;101698.63;;;7.56;100.00
52949;BME280;38812;50.942;3.644;2023-04-07T06:23:58;101692.50;;;7.58;100.00
52949;BME280;38812;50.942;3.644;2023-04-07T06:26:23;101691.81;;;7.95;100.00
52949;BME280;38812;50.942;3.644;2023-04-07T06:28:49;101694.50;;;8.19;100.00
52949;BME280;38812;50.942;3.644;2023-04-07T06:31:14;101694.47;;;8.26;100.00
52949;BME280;38812;50.942;3.644;2023-04-07T06:33:40;101704.19;;;8.44;100.00
52949;BME280;38812;50.942;3.644;2023-04-07T06:36:06;101686.72;;;8.74;100.00
52949;BME280;38812;50.942;3.644;2023-04-07T06:38:31;101705.00;;;9.12;100.00
52949;BME280;38812;50.942;3.644;2023-04-07T06:40:57;101707.50;;;9.70;100.00
52949;BME280;38812;50.942;3.644;2023-04-07T06:43:22;101711.88;;;9.66;100.00
52949;BME280;38812;50.942;3.644;2023-04-07T06:45:47;101723.38;;;9.15;100.00
52949;BME280;38812;50.942;3.644;2023-04-07T06:48:13;101721.63;;;9.21;100.00
52949;BME280;38812;50.942;3.644;2023-04-07T06:50:38;101727.75;;;9.07;100.00
52949;BME280;38812;50.942;3.644;2023-04-07T06:53:03;101730.41;;;8.87;100.00
52949;BME280;38812;50.942;3.644;2023-04-07T06:55:30;101739.97;;;8.89;100.00
52949;BME280;38812;50.942;3.644;2023-04-07T06:57:55;101739.13;;;8.78;100.00
52949;BME280;38812;50.942;3.644;2023-04-07T07:00:21;101742.63;;;8.82;100.00
52949;BME280;38812;50.942;3.644;2023-04-07T07:02:48;101747.84;;;8.77;100.00
52949;BME280;38812;50.942;3.644;2023-04-07T07:05:13;101741.75;;;8.81;100.00
52949;BME280;38812;50.942;3.644;2023-04-07T07:07:38;101750.47;;;8.79;100.00
52949;BME280;38812;50.942;3.644;2023-04-07T07:10:05;101756.56;;;8.56;100.00
52949;BME280;38812;50.942;3.644;2023-04-07T07:12:30;101760.00;;;8.46;100.00
52949;BME280;38812;50.942;3.644;2023-04-07T07:14:57;101758.28;;;8.53;100.00
52949;BME280;38812;50.942;3.644;2023-04-07T07:17:22;101763.56;;;8.76;100.00
52949;BME280;38812;50.942;3.644;2023-04-07T07:19:48;101753.09;;;9.00;100.00
52949;BME280;38812;50.942;3.644;2023-04-07T07:22:13;101755.69;;;9.27;100.00
52949;BME280;38812;50.942;3.644;2023-04-07T07:24:38;101760.84;;;9.73;100.00
52949;BME280;38812;50.942;3.644;2023-04-07T07:27:04;101752.84;;;10.01;100.00
52949;BME280;38812;50.942;3.644;2023-04-07T07:29:29;101752.91;;;9.90;100.00
52949;BME280;38812;50.942;3.644;2023-04-07T07:31:55;101749.47;;;9.74;100.00
52949;BME280;38812;50.942;3.644;2023-04-07T07:34:20;101767.00;;;9.57;100.00
52949;BME280;38812;50.942;3.644;2023-04-07T07:36:46;101763.50;;;9.55;100.00
52949;BME280;38812;50.942;3.644;2023-04-07T07:39:11;101765.28;;;9.32;100.00
52949;BME280;38812;50.942;3.644;2023-04-07T07:41:39;101772.31;;;9.26;100.00
52949;BME280;38812;50.942;3.644;2023-04-07T07:44:06;101765.31;;;9.16;100.00
52949;BME280;38812;50.942;3.644;2023-04-07T07:46:31;101771.44;;;9.23;100.00
52949;BME280;38812;50.942;3.644;2023-04-07T07:48:57;101778.41;;;9.12;100.00
52949;BME280;38812;50.942;3.644;2023-04-07T07:51:22;101773.19;;;9.00;100.00
52949;BME280;38812;50.942;3.644;2023-04-07T07:53:47;101783.66;;;8.84;100.00
52949;BME280;38812;50.942;3.644;2023-04-07T07:56:13;101767.09;;;8.87;100.00
52949;BME280;38812;50.942;3.644;2023-04-07T07:58:38;101770.53;;;8.71;100.00
52949;BME280;38812;50.942;3.644;2023-04-07T08:01:04;101785.41;;;9.01;100.00
52949;BME280;38812;50.942;3.644;2023-04-07T08:03:29;101791.53;;;9.16;100.00
52949;BME280;38812;50.942;3.644;2023-04-07T08:05:54;101793.25;;;9.37;100.00
52949;BME280;38812;50.942;3.644;2023-04-07T08:08:20;101792.34;;;9.64;100.00
52949;BME280;38812;50.942;3.644;2023-04-07T08:10:45;101789.72;;;9.73;100.00
52949;BME280;38812;50.942;3.644;2023-04-07T08:13:11;101796.72;;;9.74;100.00
52949;BME280;38812;50.942;3.644;2023-04-07T08:15:37;101787.94;;;9.81;100.00
52949;BME280;38812;50.942;3.644;2023-04-07T08:18:03;101803.59;;;10.09;100.00
52949;BME280;38812;50.942;3.644;2023-04-07T08:20:30;101803.53;;;10.18;100.00
52949;BME280;38812;50.942;3.644;2023-04-07T08:22:56;101800.06;;;10.16;100.00
52949;BME280;38812;50.942;3.644;2023-04-07T08:25:22;101815.84;;;10.07;100.00
52949;BME280;38812;50.942;3.644;2023-04-07T08:27:47;101810.47;;;10.43;100.00
52949;BME280;38812;50.942;3.644;2023-04-07T08:30:13;101820.16;;;10.32;100.00
52949;BME280;38812;50.942;3.644;2023-04-07T08:32:43;101814.84;;;10.44;100.00
52949;BME280;38812;50.942;3.644;2023-04-07T08:35:10;101814.91;;;10.35;100.00
52949;BME280;38812;50.942;3.644;2023-04-07T08:37:37;101819.22;;;10.45;100.00
52949;BME280;38812;50.942;3.644;2023-04-07T08:40:03;101815.69;;;10.51;100.00
52949;BME280;38812;50.942;3.644;2023-04-07T08:42:30;101814.91;;;10.37;100.00
52949;BME280;38812;50.942;3.644;2023-04-07T08:45:02;101821.91;;;10.35;100.00
52949;BME280;38812;50.942;3.644;2023-04-07T08:47:30;101809.72;;;10.11;100.00
52949;BME280;38812;50.942;3.644;2023-04-07T08:50:03;101824.66;;;9.86;100.00
52949;BME280;38812;50.942;3.644;2023-04-07T08:52:53;101831.66;;;9.88;100.00
52949;BME280;38812;50.942;3.644;2023-04-07T08:55:19;101840.41;;;9.93;100.00
52949;BME280;38812;50.942;3.644;2023-04-07T08:57:45;101836.06;;;9.74;100.00
52949;BME280;38812;50.942;3.644;2023-04-07T09:00:11;101824.72;;;9.63;100.00
52949;BME280;38812;50.942;3.644;2023-04-07T09:02:41;101847.41;;;9.79;100.00
52949;BME280;38812;50.942;3.644;2023-04-07T09:05:12;101841.28;;;9.89;100.00
52949;BME280;38812;50.942;3.644;2023-04-07T09:07:38;101850.91;;;9.84;100.00
52949;BME280;38812;50.942;3.644;2023-04-07T09:10:10;101849.13;;;9.98;100.00
52949;BME280;38812;50.942;3.644;2023-04-07T09:12:36;101850.03;;;9.81;100.00
52949;BME280;38812;50.942;3.644;2023-04-07T09:15:02;101861.38;;;10.00;100.00
52949;BME280;38812;50.942;3.644;2023-04-07T09:17:28;101850.03;;;9.94;100.00
52949;BME280;38812;50.942;3.644;2023-04-07T09:19:58;101850.84;;;10.12;100.00
52949;BME280;38812;50.942;3.644;2023-04-07T09:22:38;101844.72;;;10.04;100.00
52949;BME280;38812;50.942;3.644;2023-04-07T09:25:18;101845.22;;;10.94;100.00
52949;BME280;38812;50.942;3.644;2023-04-07T09:30:26;101836.09;;;12.91;100.00
52949;BME280;38812;50.942;3.644;2023-04-07T09:32:52;101840.34;;;14.02;100.00
52949;BME280;38812;50.942;3.644;2023-04-07T09:35:18;101837.22;;;14.27;100.00
52949;BME280;38812;50.942;3.644;2023-04-07T09:37:43;101835.94;;;13.55;100.00
52949;BME280;38812;50.942;3.644;2023-04-07T09:40:09;101847.16;;;12.54;100.00
52949;BME280;38812;50.942;3.644;2023-04-07T09:42:43;101836.91;;;11.47;100.00
52949;BME280;38812;50.942;3.644;2023-04-07T09:45:09;101846.13;;;10.84;100.00
52949;BME280;38812;50.942;3.644;2023-04-07T09:47:35;101837.31;;;10.95;100.00
52949;BME280;38812;50.942;3.644;2023-04-07T09:50:00;101838.25;;;10.84;100.00
52949;BME280;38812;50.942;3.644;2023-04-07T09:52:50;101840.88;;;10.85;100.00
52949;BME280;38812;50.942;3.644;2023-04-07T09:55:21;101847.16;;;10.61;100.00
52949;BME280;38812;50.942;3.644;2023-04-07T09:57:48;101850.50;;;10.86;100.00
52949;BME280;38812;50.942;3.644;2023-04-07T10:00:15;101850.44;;;10.97;100.00
52949;BME280;38812;50.942;3.644;2023-04-07T10:02:40;101855.69;;;11.00;100.00
52949;BME280;38812;50.942;3.644;2023-04-07T10:05:07;101854.09;;;10.75;100.00
52949;BME280;38812;50.942;3.644;2023-04-07T10:07:34;101854.25;;;10.41;100.00
52949;BME280;38812;50.942;3.644;2023-04-07T10:09:59;101858.50;;;10.65;100.00
52949;BME280;38812;50.942;3.644;2023-04-07T10:12:26;101858.47;;;10.74;100.00
52949;BME280;38812;50.942;3.644;2023-04-07T10:14:51;101859.38;;;10.72;100.00
52949;BME280;38812;50.942;3.644;2023-04-07T10:17:17;101860.00;;;11.07;100.00
52949;BME280;38812;50.942;3.644;2023-04-07T10:19:45;101850.91;;;11.49;100.00
52949;BME280;38812;50.942;3.644;2023-04-07T10:22:13;101851.47;;;11.86;100.00
52949;BME280;38812;50.942;3.644;2023-04-07T10:27:15;101857.28;;;12.16;100.00
52949;BME280;38812;50.942;3.644;2023-04-07T10:29:43;101860.06;;;13.85;100.00
52949;BME280;38812;50.942;3.644;2023-04-07T10:32:10;101851.31;;;14.70;100.00
52949;BME280;38812;50.942;3.644;2023-04-07T10:37:21;101847.94;;;13.21;100.00
52949;BME280;38812;50.942;3.644;2023-04-07T10:45:09;101865.50;;;12.62;100.00
52949;BME280;38812;50.942;3.644;2023-04-07T10:50:25;101869.44;;;11.36;100.00
52949;BME280;38812;50.942;3.644;2023-04-07T10:53:07;101875.03;;;10.87;100.00
52949;BME280;38812;50.942;3.644;2023-04-07T10:55:43;101875.16;;;10.62;100.00
52949;BME280;38812;50.942;3.644;2023-04-07T10:58:24;101859.31;;;10.81;100.00
52949;BME280;38812;50.942;3.644;2023-04-07T11:03:21;101858.47;;;10.79;100.00
52949;BME280;38812;50.942;3.644;2023-04-07T11:05:47;101844.34;;;10.92;100.00
52949;BME280;38812;50.942;3.644;2023-04-07T11:08:12;101862.75;;;10.92;100.00
52949;BME280;38812;50.942;3.644;2023-04-07T11:10:37;101861.09;;;10.77;100.00
52949;BME280;38812;50.942;3.644;2023-04-07T11:13:07;101867.91;;;11.06;100.00
52949;BME280;38812;50.942;3.644;2023-04-07T11:15:36;101868.69;;;11.21;100.00
52949;BME280;38812;50.942;3.644;2023-04-07T11:18:25;101878.09;;;11.50;100.00
52949;BME280;38812;50.942;3.644;2023-04-07T11:20:53;101871.66;;;11.86;100.00
52949;BME280;38812;50.942;3.644;2023-04-07T11:23:20;101874.22;;;11.92;100.00
52949;BME280;38812;50.942;3.644;2023-04-07T11:25:48;101878.59;;;11.94;100.00
52949;BME280;38812;50.942;3.644;2023-04-07T11:28:14;101884.16;;;11.61;100.00
52949;BME280;38812;50.942;3.644;2023-04-07T11:30:48;101875.19;;;11.83;100.00
52949;BME280;38812;50.942;3.644;2023-04-07T11:33:17;101881.09;;;12.07;100.00
52949;BME280;38812;50.942;3.644;2023-04-07T11:35:48;101877.59;;;12.08;100.00
52949;BME280;38812;50.942;3.644;2023-04-07T11:38:14;101866.81;;;12.29;100.00
52949;BME280;38812;50.942;3.644;2023-04-07T11:40:40;101875.66;;;12.22;100.00
52949;BME280;38812;50.942;3.644;2023-04-07T11:43:27;101872.44;;;13.30;100.00
52949;BME280;38812;50.942;3.644;2023-04-07T11:46:15;101872.97;;;13.51;100.00
52949;BME280;38812;50.942;3.644;2023-04-07T11:48:42;101870.78;;;13.23;100.00
52949;BME280;38812;50.942;3.644;2023-04-07T11:51:21;101867.97;;;12.76;100.00
52949;BME280;38812;50.942;3.644;2023-04-07T11:53:54;101891.19;;;12.45;100.00
52949;BME280;38812;50.942;3.644;2023-04-07T11:56:20;101882.94;;;11.98;100.00
52949;BME280;38812;50.942;3.644;2023-04-07T11:58:54;101883.28;;;11.59;100.00
52949;BME280;38812;50.942;3.644;2023-04-07T12:01:20;101892.28;;;11.30;100.00
52949;BME280;38812;50.942;3.644;2023-04-07T12:04:00;101908.34;;;10.86;100.00
52949;BME280;38812;50.942;3.644;2023-04-07T12:06:35;101901.41;;;10.75;100.00
52949;BME280;38812;50.942;3.644;2023-04-07T12:09:04;101908.50;;;10.54;100.00
52949;BME280;38812;50.942;3.644;2023-04-07T12:11:30;101912.81;;;10.74;100.00
52949;BME280;38812;50.942;3.644;2023-04-07T12:13:56;101899.63;;;10.80;100.00
52949;BME280;38812;50.942;3.644;2023-04-07T12:16:22;101901.31;;;10.93;100.00
52949;BME280;38812;50.942;3.644;2023-04-07T12:18:48;101915.03;;;11.38;100.00
52949;BME280;38812;50.942;3.644;2023-04-07T12:21:13;101909.66;;;11.50;100.00
52949;BME280;38812;50.942;3.644;2023-04-07T12:23:39;101917.63;;;11.44;100.00
52949;BME280;38812;50.942;3.644;2023-04-07T12:26:05;101907.97;;;11.44;100.00
52949;BME280;38812;50.942;3.644;2023-04-07T12:28:30;101921.88;;;11.60;100.00
52949;BME280;38812;50.942;3.644;2023-04-07T12:30:55;101917.66;;;11.41;100.00
52949;BME280;38812;50.942;3.644;2023-04-07T12:33:21;101931.81;;;11.24;100.00
52949;BME280;38812;50.942;3.644;2023-04-07T12:35:46;101939.84;;;10.97;100.00
52949;BME280;38812;50.942;3.644;2023-04-07T12:38:12;101929.56;;;10.42;100.00
52949;BME280;38812;50.942;3.644;2023-04-07T12:40:38;101947.13;;;10.34;100.00
52949;BME280;38812;50.942;3.644;2023-04-07T12:43:04;101941.00;;;10.29;100.00
52949;BME280;38812;50.942;3.644;2023-04-07T12:45:30;101942.75;;;10.16;100.00
52949;BME280;38812;50.942;3.644;2023-04-07T12:47:56;101937.50;;;10.03;100.00
52949;BME280;38812;50.942;3.644;2023-04-07T12:50:22;101953.25;;;9.96;100.00
52949;BME280;38812;50.942;3.644;2023-04-07T12:52:49;101960.25;;;9.78;100.00
52949;BME280;38812;50.942;3.644;2023-04-07T12:55:15;101964.66;;;9.91;100.00
52949;BME280;38812;50.942;3.644;2023-04-07T12:57:41;101963.75;;;10.03;100.00
52949;BME280;38812;50.942;3.644;2023-04-07T13:00:07;101959.38;;;10.00;100.00
52949;BME280;38812;50.942;3.644;2023-04-07T13:02:32;101961.97;;;10.18;100.00
52949;BME280;38812;50.942;3.644;2023-04-07T13:04:58;101955.88;;;10.36;100.00
52949;BME280;38812;50.942;3.644;2023-04-07T13:07:24;101955.88;;;10.33;100.00
52949;BME280;38812;50.942;3.644;2023-04-07T13:09:49;101960.25;;;10.28;100.00
52949;BME280;38812;50.942;3.644;2023-04-07T13:12:15;101963.75;;;10.39;100.00
52949;BME280;38812;50.942;3.644;2023-04-07T13:14:41;101947.97;;;10.18;100.00
52949;BME280;38812;50.942;3.644;2023-04-07T13:17:07;101962.88;;;9.75;100.00